sensor_id;sensor_type;location;lat;lon;timestamp;temperature;humidity
56538;DHT22;42435;53.292;6.000;2023-06-10T00:02:26;16.50;71.10
56538;DHT22;42435;53.292;6.000;2023-06-10T00:04:51;16.50;71.10
56538;DHT22;42435;53.292;6.000;2023-06-10T00:07:18;16.50;71.10
56538;DHT22;42435;53.292;6.000;2023-06-10T00:09:44;16.40;71.10
56538;DHT22;42435;53.292;6.000;2023-06-10T00:12:10;16.40;71.00
56538;DHT22;42435;53.292;6.000;2023-06-10T00:14:38;16.40;71.10
56538;DHT22;42435;53.292;6.000;2023-06-10T00:17:04;16.40;71.10
56538;DHT22;42435;53.292;6.000;2023-06-10T00:19:30;16.40;71.10
56538;DHT22;42435;53.292;6.000;2023-06-10T00:21:56;16.40;71.00
56538;DHT22;42435;53.292;6.000;2023-06-10T00:24:22;16.40;71.00
56538;DHT22;42435;53.292;6.000;2023-06-10T00:26:48;16.40;71.00
56538;DHT22;42435;53.292;6.000;2023-06-10T00:29:14;16.30;71.00
56538;DHT22;42435;53.292;6.000;2023-06-10T00:31:40;16.30;71.00
56538;DHT22;42435;53.292;6.000;2023-06-10T00:34:06;16.30;71.00
56538;DHT22;42435;53.292;6.000;2023-06-10T00:36:33;16.30;71.10
56538;DHT22;42435;53.292;6.000;2023-06-10T00:38:59;16.30;71.10
56538;DHT22;42435;53.292;6.000;2023-06-10T00:41:25;16.20;71.10
56538;DHT22;42435;53.292;6.000;2023-06-10T00:43:53;16.20;71.20
56538;DHT22;42435;53.292;6.000;2023-06-10T00:46:23;16.20;71.10
56538;DHT22;42435;53.292;6.000;2023-06-10T00:48:50;16.20;71.20
56538;DHT22;42435;53.292;6.000;2023-06-10T00:51:16;16.10;71.10
56538;DHT22;42435;53.292;6.000;2023-06-10T00:53:42;16.20;71.10
56538;DHT22;42435;53.292;6.000;2023-06-10T00:56:08;16.10;71.20
56538;DHT22;42435;53.292;6.000;2023-06-10T00:58:34;16.10;71.20
56538;DHT22;42435;53.292;6.000;2023-06-10T01:01:00;16.10;71.20
56538;DHT22;42435;53.292;6.000;2023-06-10T01:03:26;16.10;71.10
56538;DHT22;42435;53.292;6.000;2023-06-10T01:05:59;16.10;71.10
56538;DHT22;42435;53.292;6.000;2023-06-10T01:08:35;16.10;71.20
56538;DHT22;42435;53.292;6.000;2023-06-10T01:11:05;16.00;71.10
56538;DHT22;42435;53.292;6.000;2023-06-10T01:13:36;16.00;71.10
56538;DHT22;42435;53.292;6.000;2023-06-10T01:16:05;16.00;71.10
56538;DHT22;42435;53.292;6.000;2023-06-10T01:18:31;15.90;71.20
56538;DHT22;42435;53.292;6.000;2023-06-10T01:20:57;15.90;71.30
56538;DHT22;42435;53.292;6.000;2023-06-10T01:23:23;15.90;71.20
56538;DHT22;42435;53.292;6.000;2023-06-10T01:25:53;15.90;71.20
56538;DHT22;42435;53.292;6.000;2023-06-10T01:28:48;15.90;71.20
56538;DHT22;42435;53.292;6.000;2023-06-10T01:31:46;15.90;71.40
56538;DHT22;42435;53.292;6.000;2023-06-10T01:34:17;15.80;71.40
56538;DHT22;42435;53.292;6.000;2023-06-10T01:36:46;15.80;71.20
56538;DHT22;42435;53.292;6.000;2023-06-10T01:39:15;15.70;71.40
56538;DHT22;42435;53.292;6.000;2023-06-10T01:41:42;15.70;71.50
56538;DHT22;42435;53.292;6.000;2023-06-10T01:44:08;15.70;71.50
56538;DHT22;42435;53.292;6.000;2023-06-10T01:46:34;15.60;71.60
56538;DHT22;42435;53.292;6.000;2023-06-10T01:49:00;15.60;71.60
56538;DHT22;42435;53.292;6.000;2023-06-10T01:51:25;15.60;71.70
56538;DHT22;42435;53.292;6.000;2023-06-10T01:53:51;15.50;71.70
56538;DHT22;42435;53.292;6.000;2023-06-10T01:56:16;15.50;71.80
56538;DHT22;42435;53.292;6.000;2023-06-10T01:58:45;15.50;71.90
56538;DHT22;42435;53.292;6.000;2023-06-10T02:01:11;15.50;71.90
56538;DHT22;42435;53.292;6.000;2023-06-10T02:03:37;15.40;72.00
56538;DHT22;42435;53.292;6.000;2023-06-10T02:06:03;15.40;72.00
56538;DHT22;42435;53.292;6.000;2023-06-10T02:08:28;15.40;72.00
56538;DHT22;42435;53.292;6.000;2023-06-10T02:10:54;15.30;72.10
56538;DHT22;42435;53.292;6.000;2023-06-10T02:13:19;15.30;72.20
56538;DHT22;42435;53.292;6.000;2023-06-10T02:15:45;15.30;72.20
56538;DHT22;42435;53.292;6.000;2023-06-10T02:18:11;15.20;72.30
56538;DHT22;42435;53.292;6.000;2023-06-10T02:20:40;15.10;72.40
56538;DHT22;42435;53.292;6.000;2023-06-10T02:23:05;15.10;72.50
56538;DHT22;42435;53.292;6.000;2023-06-10T02:25:32;15.10;72.60
56538;DHT22;42435;53.292;6.000;2023-06-10T02:27:58;15.00;72.60
56538;DHT22;42435;53.292;6.000;2023-06-10T02:30:25;15.00;72.70
56538;DHT22;42435;53.292;6.000;2023-06-10T02:32:50;15.00;72.80
56538;DHT22;42435;53.292;6.000;2023-06-10T02:35:17;14.90;72.80
56538;DHT22;42435;53.292;6.000;2023-06-10T02:37:43;14.90;72.80
56538;DHT22;42435;53.292;6.000;2023-06-10T02:40:09;14.90;72.80
56538;DHT22;42435;53.292;6.000;2023-06-10T02:42:36;14.80;72.90
56538;DHT22;42435;53.292;6.000;2023-06-10T02:45:02;14.80;72.90
56538;DHT22;42435;53.292;6.000;2023-06-10T02:47:27;14.80;73.00
56538;DHT22;42435;53.292;6.000;2023-06-10T02:49:53;14.70;73.00
56538;DHT22;42435;53.292;6.000;2023-06-10T02:52:19;14.70;73.10
56538;DHT22;42435;53.292;6.000;2023-06-10T02:54:45;14.60;73.20
56538;DHT22;42435;53.292;6.000;2023-06-10T02:57:11;14.50;73.10
56538;DHT22;42435;53.292;6.000;2023-06-10T02:59:37;14.50;73.10
56538;DHT22;42435;53.292;6.000;2023-06-10T03:02:02;14.40;73.20
56538;DHT22;42435;53.292;6.000;2023-06-10T03:04:29;14.40;73.30
56538;DHT22;42435;53.292;6.000;2023-06-10T03:06:55;14.40;73.40
56538;DHT22;42435;53.292;6.000;2023-06-10T03:09:21;14.30;73.50
56538;DHT22;42435;53.292;6.000;2023-06-10T03:11:47;14.20;73.60
56538;DHT22;42435;53.292;6.000;2023-06-10T03:14:12;14.20;73.70
56538;DHT22;42435;53.292;6.000;2023-06-10T03:16:41;14.20;73.80
56538;DHT22;42435;53.292;6.000;2023-06-10T03:19:08;14.20;74.00
56538;DHT22;42435;53.292;6.000;2023-06-10T03:21:36;14.20;74.10
56538;DHT22;42435;53.292;6.000;2023-06-10T03:24:03;14.10;74.30
56538;DHT22;42435;53.292;6.000;2023-06-10T03:26:28;14.10;74.40
56538;DHT22;42435;53.292;6.000;2023-06-10T03:28:54;14.10;74.50
56538;DHT22;42435;53.292;6.000;2023-06-10T03:31:19;14.10;74.60
56538;DHT22;42435;53.292;6.000;2023-06-10T03:33:45;14.00;74.70
56538;DHT22;42435;53.292;6.000;2023-06-10T03:36:11;14.00;74.90
56538;DHT22;42435;53.292;6.000;2023-06-10T03:38:36;14.10;75.00
56538;DHT22;42435;53.292;6.000;2023-06-10T03:41:02;14.00;75.10
56538;DHT22;42435;53.292;6.000;2023-06-10T03:43:28;14.00;75.20
56538;DHT22;42435;53.292;6.000;2023-06-10T03:45:53;14.10;75.40
56538;DHT22;42435;53.292;6.000;2023-06-10T03:48:19;14.10;75.50
56538;DHT22;42435;53.292;6.000;2023-06-10T03:50:48;14.10;75.80
56538;DHT22;42435;53.292;6.000;2023-06-10T03:53:16;14.10;76.00
56538;DHT22;42435;53.292;6.000;2023-06-10T03:55:41;14.10;76.20
56538;DHT22;42435;53.292;6.000;2023-06-10T03:58:07;14.10;76.30
56538;DHT22;42435;53.292;6.000;2023-06-10T04:00:33;14.10;76.40
56538;DHT22;42435;53.292;6.000;2023-06-10T04:03:09;14.20;76.50
56538;DHT22;42435;53.292;6.000;2023-06-10T04:05:40;14.20;76.60
56538;DHT22;42435;53.292;6.000;2023-06-10T04:08:06;14.20;76.70
56538;DHT22;42435;53.292;6.000;2023-06-10T04:10:32;14.20;76.80
56538;DHT22;42435;53.292;6.000;2023-06-10T04:12:57;14.20;76.80
56538;DHT22;42435;53.292;6.000;2023-06-10T04:15:23;14.30;76.90
56538;DHT22;42435;53.292;6.000;2023-06-10T04:17:49;14.30;76.90
56538;DHT22;42435;53.292;6.000;2023-06-10T04:20:14;14.30;77.00
56538;DHT22;42435;53.292;6.000;2023-06-10T04:22:40;14.30;77.10
56538;DHT22;42435;53.292;6.000;2023-06-10T04:25:06;14.30;77.20
56538;DHT22;42435;53.292;6.000;2023-06-10T04:27:33;14.30;77.40
56538;DHT22;42435;53.292;6.000;2023-06-10T04:29:58;14.30;77.60
56538;DHT22;42435;53.292;6.000;2023-06-10T04:32:24;14.30;77.70
56538;DHT22;42435;53.292;6.000;2023-06-10T04:34:51;14.30;77.90
56538;DHT22;42435;53.292;6.000;2023-06-10T04:37:17;14.30;78.10
56538;DHT22;42435;53.292;6.000;2023-06-10T04:39:43;14.40;78.20
56538;DHT22;42435;53.292;6.000;2023-06-10T04:42:09;14.40;78.40
56538;DHT22;42435;53.292;6.000;2023-06-10T04:44:34;14.50;78.50
56538;DHT22;42435;53.292;6.000;2023-06-10T04:47:00;14.50;78.60
56538;DHT22;42435;53.292;6.000;2023-06-10T04:49:26;14.60;78.70
56538;DHT22;42435;53.292;6.000;2023-06-10T04:51:51;14.70;78.70
56538;DHT22;42435;53.292;6.000;2023-06-10T04:54:17;14.70;78.80
56538;DHT22;42435;53.292;6.000;2023-06-10T04:56:43;14.80;78.90
56538;DHT22;42435;53.292;6.000;2023-06-10T04:59:08;14.90;78.90
56538;DHT22;42435;53.292;6.000;2023-06-10T05:01:34;14.90;78.90
56538;DHT22;42435;53.292;6.000;2023-06-10T05:03:59;14.90;79.00
56538;DHT22;42435;53.292;6.000;2023-06-10T05:06:25;15.00;79.00
56538;DHT22;42435;53.292;6.000;2023-06-10T05:08:50;15.10;79.00
56538;DHT22;42435;53.292;6.000;2023-06-10T05:11:16;15.20;79.10
56538;DHT22;42435;53.292;6.000;2023-06-10T05:13:42;15.20;79.00
56538;DHT22;42435;53.292;6.000;2023-06-10T05:16:09;15.30;79.10
56538;DHT22;42435;53.292;6.000;2023-06-10T05:18:35;15.40;79.10
56538;DHT22;42435;53.292;6.000;2023-06-10T05:21:01;15.40;79.10
56538;DHT22;42435;53.292;6.000;2023-06-10T05:23:27;15.50;79.00
56538;DHT22;42435;53.292;6.000;2023-06-10T05:25:54;15.60;79.00
56538;DHT22;42435;53.292;6.000;2023-06-10T05:28:19;15.70;78.80
56538;DHT22;42435;53.292;6.000;2023-06-10T05:30:45;15.80;78.70
56538;DHT22;42435;53.292;6.000;2023-06-10T05:33:11;15.90;78.60
56538;DHT22;42435;53.292;6.000;2023-06-10T05:35:37;16.00;78.50
56538;DHT22;42435;53.292;6.000;2023-06-10T05:38:02;16.00;78.40
56538;DHT22;42435;53.292;6.000;2023-06-10T05:40:28;16.10;78.30
56538;DHT22;42435;53.292;6.000;2023-06-10T05:42:54;16.10;78.30
56538;DHT22;42435;53.292;6.000;2023-06-10T05:45:19;16.20;78.30
56538;DHT22;42435;53.292;6.000;2023-06-10T05:47:45;16.30;78.20
56538;DHT22;42435;53.292;6.000;2023-06-10T05:50:11;16.40;78.00
56538;DHT22;42435;53.292;6.000;2023-06-10T05:52:36;16.60;77.80
56538;DHT22;42435;53.292;6.000;2023-06-10T05:55:03;16.70;77.70
56538;DHT22;42435;53.292;6.000;2023-06-10T05:57:29;16.80;77.50
56538;DHT22;42435;53.292;6.000;2023-06-10T05:59:54;16.90;77.40
56538;DHT22;42435;53.292;6.000;2023-06-10T06:02:20;17.20;77.20
56538;DHT22;42435;53.292;6.000;2023-06-10T06:04:46;17.40;76.70
56538;DHT22;42435;53.292;6.000;2023-06-10T06:07:11;17.50;76.00
56538;DHT22;42435;53.292;6.000;2023-06-10T06:09:37;17.70;75.50
56538;DHT22;42435;53.292;6.000;2023-06-10T06:12:03;17.90;75.00
56538;DHT22;42435;53.292;6.000;2023-06-10T06:14:31;18.30;74.10
56538;DHT22;42435;53.292;6.000;2023-06-10T06:16:57;18.50;73.30
56538;DHT22;42435;53.292;6.000;2023-06-10T06:19:23;18.80;73.00
56538;DHT22;42435;53.292;6.000;2023-06-10T06:21:49;19.10;72.20
56538;DHT22;42435;53.292;6.000;2023-06-10T06:24:15;19.40;70.70
56538;DHT22;42435;53.292;6.000;2023-06-10T06:26:41;19.60;70.20
56538;DHT22;42435;53.292;6.000;2023-06-10T06:29:09;19.90;69.60
56538;DHT22;42435;53.292;6.000;2023-06-10T06:31:35;20.00;68.90
56538;DHT22;42435;53.292;6.000;2023-06-10T06:34:00;20.30;68.40
56538;DHT22;42435;53.292;6.000;2023-06-10T06:36:28;20.50;67.80
56538;DHT22;42435;53.292;6.000;2023-06-10T06:38:54;20.70;67.20
56538;DHT22;42435;53.292;6.000;2023-06-10T06:41:19;20.80;66.60
56538;DHT22;42435;53.292;6.000;2023-06-10T06:43:47;20.90;65.90
56538;DHT22;42435;53.292;6.000;2023-06-10T06:46:13;21.00;65.50
56538;DHT22;42435;53.292;6.000;2023-06-10T06:48:38;21.20;65.30
56538;DHT22;42435;53.292;6.000;2023-06-10T06:51:04;21.30;64.80
56538;DHT22;42435;53.292;6.000;2023-06-10T06:53:29;21.30;65.00
56538;DHT22;42435;53.292;6.000;2023-06-10T06:55:55;21.40;64.70
56538;DHT22;42435;53.292;6.000;2023-06-10T06:58:20;21.40;64.40
56538;DHT22;42435;53.292;6.000;2023-06-10T07:00:46;21.40;64.70
56538;DHT22;42435;53.292;6.000;2023-06-10T07:03:12;21.40;64.60
56538;DHT22;42435;53.292;6.000;2023-06-10T07:05:38;21.50;64.00
56538;DHT22;42435;53.292;6.000;2023-06-10T07:08:04;21.40;64.30
56538;DHT22;42435;53.292;6.000;2023-06-10T07:10:29;21.60;64.20
56538;DHT22;42435;53.292;6.000;2023-06-10T07:12:55;21.60;63.50
56538;DHT22;42435;53.292;6.000;2023-06-10T07:15:21;21.70;63.20
56538;DHT22;42435;53.292;6.000;2023-06-10T07:17:46;21.60;63.10
56538;DHT22;42435;53.292;6.000;2023-06-10T07:20:12;21.70;63.30
56538;DHT22;42435;53.292;6.000;2023-06-10T07:22:38;21.80;63.40
56538;DHT22;42435;53.292;6.000;2023-06-10T07:25:05;21.90;63.00
56538;DHT22;42435;53.292;6.000;2023-06-10T07:27:30;22.00;62.00
56538;DHT22;42435;53.292;6.000;2023-06-10T07:29:56;22.10;61.40
56538;DHT22;42435;53.292;6.000;2023-06-10T07:32:22;22.20;61.00
56538;DHT22;42435;53.292;6.000;2023-06-10T07:34:49;22.40;60.70
56538;DHT22;42435;53.292;6.000;2023-06-10T07:37:15;22.40;60.60
56538;DHT22;42435;53.292;6.000;2023-06-10T07:39:40;22.50;60.40
56538;DHT22;42435;53.292;6.000;2023-06-10T07:42:06;22.60;60.10
56538;DHT22;42435;53.292;6.000;2023-06-10T07:44:32;22.70;59.40
56538;DHT22;42435;53.292;6.000;2023-06-10T07:46:58;22.80;58.50
56538;DHT22;42435;53.292;6.000;2023-06-10T07:49:23;22.90;58.20
56538;DHT22;42435;53.292;6.000;2023-06-10T07:51:50;23.00;57.90
56538;DHT22;42435;53.292;6.000;2023-06-10T07:54:17;23.10;58.00
56538;DHT22;42435;53.292;6.000;2023-06-10T07:56:42;23.20;57.90
56538;DHT22;42435;53.292;6.000;2023-06-10T07:59:08;23.40;58.10
56538;DHT22;42435;53.292;6.000;2023-06-10T08:01:34;23.50;57.50
56538;DHT22;42435;53.292;6.000;2023-06-10T08:04:01;23.60;56.70
56538;DHT22;42435;53.292;6.000;2023-06-10T08:06:26;23.60;57.30
56538;DHT22;42435;53.292;6.000;2023-06-10T08:08:52;23.60;56.20
56538;DHT22;42435;53.292;6.000;2023-06-10T08:11:18;23.70;55.60
56538;DHT22;42435;53.292;6.000;2023-06-10T08:13:43;23.70;55.60
56538;DHT22;42435;53.292;6.000;2023-06-10T08:16:09;23.80;55.90
56538;DHT22;42435;53.292;6.000;2023-06-10T08:18:35;24.00;54.80
56538;DHT22;42435;53.292;6.000;2023-06-10T08:21:00;24.00;54.10
56538;DHT22;42435;53.292;6.000;2023-06-10T08:23:26;24.10;53.90
56538;DHT22;42435;53.292;6.000;2023-06-10T08:25:52;24.20;53.30
56538;DHT22;42435;53.292;6.000;2023-06-10T08:28:18;24.30;53.30
56538;DHT22;42435;53.292;6.000;2023-06-10T08:30:43;24.40;53.30
56538;DHT22;42435;53.292;6.000;2023-06-10T08:33:09;24.50;53.10
56538;DHT22;42435;53.292;6.000;2023-06-10T08:35:35;24.70;52.40
56538;DHT22;42435;53.292;6.000;2023-06-10T08:38:00;24.80;52.00
56538;DHT22;42435;53.292;6.000;2023-06-10T08:40:26;24.80;52.00
56538;DHT22;42435;53.292;6.000;2023-06-10T08:43:00;24.90;51.90
56538;DHT22;42435;53.292;6.000;2023-06-10T08:45:30;25.00;51.30
56538;DHT22;42435;53.292;6.000;2023-06-10T08:47:57;25.20;50.80
56538;DHT22;42435;53.292;6.000;2023-06-10T08:50:23;25.30;50.80
56538;DHT22;42435;53.292;6.000;2023-06-10T08:52:50;25.40;50.10
56538;DHT22;42435;53.292;6.000;2023-06-10T08:55:23;25.50;50.30
56538;DHT22;42435;53.292;6.000;2023-06-10T08:57:52;25.70;50.20
56538;DHT22;42435;53.292;6.000;2023-06-10T09:00:18;25.90;50.10
56538;DHT22;42435;53.292;6.000;2023-06-10T09:02:44;26.00;50.20
56538;DHT22;42435;53.292;6.000;2023-06-10T09:05:10;26.20;49.70
56538;DHT22;42435;53.292;6.000;2023-06-10T09:07:36;26.20;50.00
56538;DHT22;42435;53.292;6.000;2023-06-10T09:10:03;26.30;49.10
56538;DHT22;42435;53.292;6.000;2023-06-10T09:12:31;26.40;48.80
56538;DHT22;42435;53.292;6.000;2023-06-10T09:14:57;26.50;48.50
56538;DHT22;42435;53.292;6.000;2023-06-10T09:17:22;26.60;48.40
56538;DHT22;42435;53.292;6.000;2023-06-10T09:19:49;26.70;48.40
56538;DHT22;42435;53.292;6.000;2023-06-10T09:22:15;26.90;48.00
56538;DHT22;42435;53.292;6.000;2023-06-10T09:24:41;26.90;48.20
56538;DHT22;42435;53.292;6.000;2023-06-10T09:27:10;27.10;47.90
56538;DHT22;42435;53.292;6.000;2023-06-10T09:29:53;27.10;48.00
56538;DHT22;42435;53.292;6.000;2023-06-10T09:32:20;27.20;47.10
56538;DHT22;42435;53.292;6.000;2023-06-10T09:34:46;27.30;47.50
56538;DHT22;42435;53.292;6.000;2023-06-10T09:37:12;27.40;47.00
56538;DHT22;42435;53.292;6.000;2023-06-10T09:39:40;27.40;46.70
56538;DHT22;42435;53.292;6.000;2023-06-10T09:42:18;27.40;46.00
56538;DHT22;42435;53.292;6.000;2023-06-10T09:44:53;27.40;45.60
56538;DHT22;42435;53.292;6.000;2023-06-10T09:47:22;27.40;46.10
56538;DHT22;42435;53.292;6.000;2023-06-10T09:49:49;27.40;45.60
56538;DHT22;42435;53.292;6.000;2023-06-10T09:52:24;27.40;46.00
56538;DHT22;42435;53.292;6.000;2023-06-10T09:54:55;27.50;46.50
56538;DHT22;42435;53.292;6.000;2023-06-10T09:57:24;27.60;46.20
56538;DHT22;42435;53.292;6.000;2023-06-10T09:59:53;27.80;46.00
56538;DHT22;42435;53.292;6.000;2023-06-10T10:02:19;27.90;45.80
56538;DHT22;42435;53.292;6.000;2023-06-10T10:04:45;28.00;44.60
56538;DHT22;42435;53.292;6.000;2023-06-10T10:07:11;28.00;43.90
56538;DHT22;42435;53.292;6.000;2023-06-10T10:09:40;27.90;44.20
56538;DHT22;42435;53.292;6.000;2023-06-10T10:12:11;27.90;43.50
56538;DHT22;42435;53.292;6.000;2023-06-10T10:14:39;27.90;43.90
56538;DHT22;42435;53.292;6.000;2023-06-10T10:17:10;28.00;44.20
56538;DHT22;42435;53.292;6.000;2023-06-10T10:19:53;28.10;43.50
56538;DHT22;42435;53.292;6.000;2023-06-10T10:22:25;28.20;44.00
56538;DHT22;42435;53.292;6.000;2023-06-10T10:24:55;28.30;42.90
56538;DHT22;42435;53.292;6.000;2023-06-10T10:27:36;28.40;43.50
56538;DHT22;42435;53.292;6.000;2023-06-10T10:30:03;28.50;42.90
56538;DHT22;42435;53.292;6.000;2023-06-10T10:32:46;28.70;42.30
56538;DHT22;42435;53.292;6.000;2023-06-10T10:35:21;28.90;42.30
56538;DHT22;42435;53.292;6.000;2023-06-10T10:37:49;29.10;42.90
56538;DHT22;42435;53.292;6.000;2023-06-10T10:40:15;29.30;44.50
56538;DHT22;42435;53.292;6.000;2023-06-10T10:42:42;29.50;45.80
56538;DHT22;42435;53.292;6.000;2023-06-10T10:45:11;29.60;46.20
56538;DHT22;42435;53.292;6.000;2023-06-10T10:47:37;29.80;46.20
56538;DHT22;42435;53.292;6.000;2023-06-10T10:50:20;29.90;45.90
56538;DHT22;42435;53.292;6.000;2023-06-10T10:55:18;29.90;46.70
56538;DHT22;42435;53.292;6.000;2023-06-10T10:57:44;29.70;46.90
56538;DHT22;42435;53.292;6.000;2023-06-10T11:00:11;29.70;46.70
56538;DHT22;42435;53.292;6.000;2023-06-10T11:05:07;29.50;47.30
56538;DHT22;42435;53.292;6.000;2023-06-10T11:07:34;29.50;47.80
56538;DHT22;42435;53.292;6.000;2023-06-10T11:10:09;29.40;48.00
56538;DHT22;42435;53.292;6.000;2023-06-10T11:12:51;29.30;47.80
56538;DHT22;42435;53.292;6.000;2023-06-10T11:15:22;29.20;48.20
56538;DHT22;42435;53.292;6.000;2023-06-10T11:18:14;29.20;48.20
56538;DHT22;42435;53.292;6.000;2023-06-10T11:33:57;28.40;51.20
56538;DHT22;42435;53.292;6.000;2023-06-10T11:36:24;28.30;51.30
56538;DHT22;42435;53.292;6.000;2023-06-10T11:38:57;28.20;51.40
56538;DHT22;42435;53.292;6.000;2023-06-10T11:41:27;28.10;52.20
56538;DHT22;42435;53.292;6.000;2023-06-10T11:43:53;28.10;52.00
56538;DHT22;42435;53.292;6.000;2023-06-10T11:46:21;28.10;51.70
56538;DHT22;42435;53.292;6.000;2023-06-10T11:48:54;27.90;52.20
56538;DHT22;42435;53.292;6.000;2023-06-10T11:51:20;27.80;53.00
56538;DHT22;42435;53.292;6.000;2023-06-10T11:53:49;27.80;53.30
56538;DHT22;42435;53.292;6.000;2023-06-10T11:56:26;27.90;53.20
56538;DHT22;42435;53.292;6.000;2023-06-10T11:58:54;27.90;53.50
56538;DHT22;42435;53.292;6.000;2023-06-10T12:01:21;27.90;53.30
56538;DHT22;42435;53.292;6.000;2023-06-10T12:03:47;27.90;53.40
56538;DHT22;42435;53.292;6.000;2023-06-10T12:06:13;27.90;53.50
56538;DHT22;42435;53.292;6.000;2023-06-10T12:08:42;28.00;52.80
56538;DHT22;42435;53.292;6.000;2023-06-10T12:11:08;28.00;52.80
56538;DHT22;42435;53.292;6.000;2023-06-10T12:13:34;27.90;52.70
56538;DHT22;42435;53.292;6.000;2023-06-10T12:16:07;27.90;52.60
56538;DHT22;42435;53.292;6.000;2023-06-10T12:18:34;27.80;52.80
56538;DHT22;42435;53.292;6.000;2023-06-10T12:21:00;27.60;53.40
56538;DHT22;42435;53.292;6.000;2023-06-10T12:23:25;27.60;53.80
56538;DHT22;42435;53.292;6.000;2023-06-10T12:25:55;27.40;53.60
56538;DHT22;42435;53.292;6.000;2023-06-10T12:28:22;27.40;54.40
56538;DHT22;42435;53.292;6.000;2023-06-10T12:30:48;27.40;53.70
56538;DHT22;42435;53.292;6.000;2023-06-10T12:33:21;27.40;54.40
56538;DHT22;42435;53.292;6.000;2023-06-10T12:35:48;27.50;54.30
56538;DHT22;42435;53.292;6.000;2023-06-10T12:38:14;27.60;53.80
56538;DHT22;42435;53.292;6.000;2023-06-10T12:40:47;27.70;52.90
56538;DHT22;42435;53.292;6.000;2023-06-10T12:43:13;27.60;53.00
56538;DHT22;42435;53.292;6.000;2023-06-10T12:45:39;27.60;53.00
56538;DHT22;42435;53.292;6.000;2023-06-10T12:48:20;27.60;52.40
56538;DHT22;42435;53.292;6.000;2023-06-10T12:50:57;27.50;52.70
56538;DHT22;42435;53.292;6.000;2023-06-10T12:53:23;27.40;52.80
56538;DHT22;42435;53.292;6.000;2023-06-10T12:55:50;27.40;52.90
56538;DHT22;42435;53.292;6.000;2023-06-10T12:58:16;27.40;52.80
56538;DHT22;42435;53.292;6.000;2023-06-10T13:00:42;27.40;53.00
56538;DHT22;42435;53.292;6.000;2023-06-10T13:03:11;27.40;52.70
56538;DHT22;42435;53.292;6.000;2023-06-10T13:05:37;27.40;52.70
56538;DHT22;42435;53.292;6.000;2023-06-10T13:08:05;27.40;52.40
56538;DHT22;42435;53.292;6.000;2023-06-10T13:10:31;27.30;52.50
56538;DHT22;42435;53.292;6.000;2023-06-10T13:12:57;27.20;52.80
56538;DHT22;42435;53.292;6.000;2023-06-10T13:15:23;27.00;53.30
56538;DHT22;42435;53.292;6.000;2023-06-10T13:17:48;27.00;53.30
56538;DHT22;42435;53.292;6.000;2023-06-10T13:20:16;26.90;53.70
56538;DHT22;42435;53.292;6.000;2023-06-10T13:22:42;26.80;53.90
56538;DHT22;42435;53.292;6.000;2023-06-10T13:25:08;26.80;54.10
56538;DHT22;42435;53.292;6.000;2023-06-10T13:27:35;26.70;54.00
56538;DHT22;42435;53.292;6.000;2023-06-10T13:30:03;26.60;54.80
56538;DHT22;42435;53.292;6.000;2023-06-10T13:32:29;26.70;55.40
56538;DHT22;42435;53.292;6.000;2023-06-10T13:34:55;27.00;54.70
56538;DHT22;42435;53.292;6.000;2023-06-10T13:37:20;27.00;54.10
56538;DHT22;42435;53.292;6.000;2023-06-10T13:39:46;27.00;53.70
56538;DHT22;42435;53.292;6.000;2023-06-10T13:42:14;26.90;54.00
56538;DHT22;42435;53.292;6.000;2023-06-10T13:44:40;26.80;53.80
56538;DHT22;42435;53.292;6.000;2023-06-10T13:47:07;26.70;54.30
56538;DHT22;42435;53.292;6.000;2023-06-10T13:49:32;26.70;53.90
56538;DHT22;42435;53.292;6.000;2023-06-10T13:51:58;26.60;54.10
56538;DHT22;42435;53.292;6.000;2023-06-10T13:54:24;26.40;54.20
56538;DHT22;42435;53.292;6.000;2023-06-10T13:56:49;26.40;54.20
56538;DHT22;42435;53.292;6.000;2023-06-10T13:59:15;26.20;54.60
56538;DHT22;42435;53.292;6.000;2023-06-10T14:01:40;26.10;54.80
56538;DHT22;42435;53.292;6.000;2023-06-10T14:04:07;26.20;55.30
56538;DHT22;42435;53.292;6.000;2023-06-10T14:06:33;26.20;55.10
56538;DHT22;42435;53.292;6.000;2023-06-10T14:09:02;26.20;55.00
56538;DHT22;42435;53.292;6.000;2023-06-10T14:11:28;26.20;54.40
56538;DHT22;42435;53.292;6.000;2023-06-10T14:13:53;26.20;54.80
56538;DHT22;42435;53.292;6.000;2023-06-10T14:16:21;26.10;55.40
56538;DHT22;42435;53.292;6.000;2023-06-10T14:18:47;26.20;55.80
56538;DHT22;42435;53.292;6.000;2023-06-10T14:21:13;26.30;55.40
56538;DHT22;42435;53.292;6.000;2023-06-10T14:23:38;26.30;55.30
56538;DHT22;42435;53.292;6.000;2023-06-10T14:26:04;26.30;55.40
56538;DHT22;42435;53.292;6.000;2023-06-10T14:28:32;26.20;55.40
56538;DHT22;42435;53.292;6.000;2023-06-10T14:30:58;26.20;56.10
56538;DHT22;42435;53.292;6.000;2023-06-10T14:33:23;26.20;56.20
56538;DHT22;42435;53.292;6.000;2023-06-10T14:35:49;26.30;56.00
56538;DHT22;42435;53.292;6.000;2023-06-10T14:38:15;26.30;55.80
56538;DHT22;42435;53.292;6.000;2023-06-10T14:40:40;26.20;55.70
56538;DHT22;42435;53.292;6.000;2023-06-10T14:43:06;26.20;56.00
56538;DHT22;42435;53.292;6.000;2023-06-10T14:45:41;26.20;55.90
56538;DHT22;42435;53.292;6.000;2023-06-10T14:48:08;26.10;56.00
56538;DHT22;42435;53.292;6.000;2023-06-10T14:50:37;26.20;56.40
56538;DHT22;42435;53.292;6.000;2023-06-10T14:53:02;26.30;56.40
56538;DHT22;42435;53.292;6.000;2023-06-10T14:55:31;26.30;56.00
56538;DHT22;42435;53.292;6.000;2023-06-10T14:57:57;26.20;56.40
56538;DHT22;42435;53.292;6.000;2023-06-10T15:00:23;26.30;56.30
56538;DHT22;42435;53.292;6.000;2023-06-10T15:02:50;26.30;56.00
56538;DHT22;42435;53.292;6.000;2023-06-10T15:05:16;26.20;56.40
56538;DHT22;42435;53.292;6.000;2023-06-10T15:07:42;26.20;56.30
56538;DHT22;42435;53.292;6.000;2023-06-10T15:10:10;26.20;56.30
56538;DHT22;42435;53.292;6.000;2023-06-10T15:12:36;26.20;56.60
56538;DHT22;42435;53.292;6.000;2023-06-10T15:15:02;26.10;56.40
56538;DHT22;42435;53.292;6.000;2023-06-10T15:17:28;26.10;56.50
56538;DHT22;42435;53.292;6.000;2023-06-10T15:19:55;26.00;56.60
56538;DHT22;42435;53.292;6.000;2023-06-10T15:22:21;26.00;56.60
56538;DHT22;42435;53.292;6.000;2023-06-10T15:24:46;25.90;57.00
56538;DHT22;42435;53.292;6.000;2023-06-10T15:27:12;25.90;57.00
56538;DHT22;42435;53.292;6.000;2023-06-10T15:29:37;25.90;57.20
56538;DHT22;42435;53.292;6.000;2023-06-10T15:32:03;25.90;57.20
56538;DHT22;42435;53.292;6.000;2023-06-10T15:34:29;25.90;57.00
56538;DHT22;42435;53.292;6.000;2023-06-10T15:36:55;25.90;57.00
56538;DHT22;42435;53.292;6.000;2023-06-10T15:39:20;25.90;57.20
56538;DHT22;42435;53.292;6.000;2023-06-10T15:41:46;25.90;57.20
56538;DHT22;42435;53.292;6.000;2023-06-10T15:44:11;25.80;57.20
56538;DHT22;42435;53.292;6.000;2023-06-10T15:46:37;25.70;57.80
56538;DHT22;42435;53.292;6.000;2023-06-10T15:49:03;25.80;58.10